Time;durP1;ratioP1;P1;durP2;ratioP2;P2;SDS_P1;SDS_P2;PMS_P1;PMS_P2;Temp;Humidity;BMP_temperature;BMP_pressure;BME280_temperature;BME280_humidity;BME280_pressure;Samples;Min_cycle;Max_cycle;Signal;HPM_P1;HPM_P2
2023/08/07 00:00:44;;;;;;;4.37;1.30;;;;;;;12.52;94.82;98751.41;4905875;28;20245;-63
2023/08/07 00:03:18;;;;;;;2.27;1.13;;;;;;;12.56;93.83;98723.09;4881917;29;20229;-64
2023/08/07 00:05:45;;;;;;;3.53;1.30;;;;;;;12.54;93.61;98727.66;4901099;29;20245;-64
2023/08/07 00:08:12;;;;;;;5.83;1.27;;;;;;;12.68;91.92;98728.84;4898330;29;20250;-64
2023/08/07 00:10:39;;;;;;;7.07;1.60;;;;;;;12.66;90.90;98736.06;4900611;29;20732;-64
2023/08/07 00:13:06;;;;;;;2.37;1.30;;;;;;;12.67;91.23;98735.88;4897844;29;20235;-64
2023/08/07 00:15:34;;;;;;;2.37;1.23;;;;;;;12.67;89.93;98733.25;4900174;29;20340;-64
2023/08/07 00:18:01;;;;;;;3.00;1.23;;;;;;;12.63;92.41;98742.41;4899226;29;20617;-64
2023/08/07 00:20:28;;;;;;;4.67;1.30;;;;;;;12.64;91.48;98730.16;4900001;29;20234;-64
2023/08/07 00:22:54;;;;;;;1.53;1.27;;;;;;;12.59;93.13;98748.94;4893008;29;20603;-64
2023/08/07 00:25:21;;;;;;;3.00;1.20;;;;;;;12.53;92.69;98732.09;4899594;29;20241;-64
2023/08/07 00:27:47;;;;;;;4.00;1.30;;;;;;;12.58;92.64;98751.75;4900616;29;20231;-68
2023/08/07 00:30:14;;;;;;;4.13;1.40;;;;;;;12.61;92.70;98751.44;4898694;29;20230;-64
2023/08/07 00:32:42;;;;;;;2.97;1.50;;;;;;;12.67;91.70;98751.59;4900367;29;20246;-64
2023/08/07 00:35:09;;;;;;;3.13;1.20;;;;;;;12.82;90.79;98754.38;4912984;29;20242;-64
2023/08/07 00:37:36;;;;;;;4.13;1.60;;;;;;;12.72;90.26;98745.84;4903320;29;20231;-64
2023/08/07 00:40:03;;;;;;;4.03;1.27;;;;;;;12.76;90.59;98741.94;4913770;29;20262;-64
2023/08/07 00:42:29;;;;;;;3.60;1.40;;;;;;;12.77;90.92;98750.63;4902188;29;20236;-66
2023/08/07 00:44:56;;;;;;;1.43;1.00;;;;;;;12.63;92.30;98742.41;4901439;29;20622;-63
2023/08/07 00:47:23;;;;;;;3.13;1.20;;;;;;;12.61;91.99;98741.75;4899950;29;20245;-63
2023/08/07 00:49:51;;;;;;;7.13;1.23;;;;;;;12.59;91.42;98743.72;4900173;29;20226;-63
2023/08/07 00:52:18;;;;;;;1.60;1.20;;;;;;;12.55;91.99;98747.63;4898216;29;20251;-64
2023/08/07 00:54:46;;;;;;;4.90;1.27;;;;;;;12.59;92.34;98741.09;4900695;29;20592;-64
2023/08/07 00:57:15;;;;;;;3.07;1.33;;;;;;;12.49;93.43;98758.75;4900136;29;20225;-64
2023/08/07 00:59:42;;;;;;;2.00;1.10;;;;;;;12.50;93.03;98757.75;4900998;29;20235;-64
2023/08/07 01:02:10;;;;;;;3.17;1.20;;;;;;;12.38;93.34;98759.88;4899325;29;20231;-64
2023/08/07 01:04:36;;;;;;;3.23;1.30;;;;;;;12.40;93.56;98750.06;4914323;29;20237;-64
2023/08/07 01:07:05;;;;;;;4.53;1.47;;;;;;;12.38;93.53;98759.88;4898176;29;20237;-64
2023/08/07 01:09:32;;;;;;;4.07;1.30;;;;;;;12.37;93.71;98758.22;4915708;29;20768;-64
2023/08/07 01:12:05;;;;;;;4.50;1.20;;;;;;;12.31;93.77;98764.09;4899819;29;20258;-64
2023/08/07 01:14:39;;;;;;;7.67;1.40;;;;;;;12.34;93.41;98767.22;4900816;29;20734;-64
2023/08/07 01:17:08;;;;;;;3.53;1.20;;;;;;;12.27;94.76;98762.78;4912950;29;20230;-64
2023/08/07 01:19:36;;;;;;;3.23;1.30;;;;;;;12.21;95.52;98758.97;4898909;29;20226;-64
2023/08/07 01:22:07;;;;;;;4.13;1.33;;;;;;;12.01;96.40;98777.56;4895484;29;20231;-65
2023/08/07 01:24:35;;;;;;;7.60;1.30;;;;;;;12.19;94.71;98772.25;4898699;29;20324;-64
2023/08/07 01:27:15;;;;;;;5.20;1.40;;;;;;;12.19;95.85;98774.84;4898093;29;20238;-63
2023/08/07 01:29:50;;;;;;;3.97;1.60;;;;;;;12.19;94.39;98782.72;4899553;29;20831;-63
2023/08/07 01:32:24;;;;;;;3.40;1.50;;;;;;;12.25;94.80;98776.84;4912330;29;20293;-63
2023/08/07 01:34:53;;;;;;;1.57;1.20;;;;;;;12.27;94.76;98781.09;4902513;29;20821;-63
2023/08/07 01:37:23;;;;;;;5.43;1.40;;;;;;;12.23;94.07;98783.19;4899435;29;20695;-63
2023/08/07 01:39:52;;;;;;;10.87;3.20;;;;;;;12.15;95.23;98789.22;4901488;29;20245;-63
2023/08/07 01:42:19;;;;;;;4.20;1.80;;;;;;;12.17;94.96;98789.91;4898867;29;20239;-64
2023/08/07 01:44:45;;;;;;;4.03;1.43;;;;;;;12.23;93.75;98781.41;4899211;29;20239;-63
2023/08/07 01:47:15;;;;;;;5.00;1.50;;;;;;;12.15;93.84;98791.84;4887030;29;20573;-64
2023/08/07 01:49:42;;;;;;;2.70;1.33;;;;;;;12.18;96.83;98790.72;4898231;29;20599;-64
2023/08/07 01:52:11;;;;;;;3.40;1.63;;;;;;;12.12;95.42;98791.34;4898183;29;20249;-64
2023/08/07 01:54:39;;;;;;;3.67;1.40;;;;;;;12.23;96.50;98798.91;4898842;29;20248;-64
2023/08/07 01:57:06;;;;;;;3.30;1.47;;;;;;;12.23;95.78;98806.75;4897430;29;20309;-64
2023/08/07 01:59:33;;;;;;;2.90;1.53;;;;;;;12.14;95.95;98795.44;4899738;29;20245;-64
2023/08/07 02:01:59;;;;;;;4.10;1.30;;;;;;;12.01;95.33;98800.28;4898432;29;20702;-64
2023/08/07 02:04:26;;;;;;;4.43;1.53;;;;;;;11.97;96.33;98799.75;4898731;29;20257;-64
2023/08/07 02:06:53;;;;;;;5.13;1.40;;;;;;;12.11;96.14;98795.75;4902003;29;20234;-64
2023/08/07 02:09:23;;;;;;;10.30;2.00;;;;;;;11.95;95.66;98797.28;4896825;29;20246;-64
2023/08/07 02:11:51;;;;;;;5.70;1.77;;;;;;;11.81;97.04;98798.69;4899890;29;20306;-64
2023/08/07 02:14:18;;;;;;;4.53;1.50;;;;;;;11.80;96.59;98799.66;4893255;29;20577;-64
2023/08/07 02:16:45;;;;;;;3.13;1.67;;;;;;;11.92;95.40;98797.59;4912324;29;20225;-63
2023/08/07 02:19:13;;;;;;;4.43;1.47;;;;;;;11.75;95.50;98794.06;4895541;29;20235;-63
2023/08/07 02:21:42;;;;;;;6.33;1.70;;;;;;;11.66;96.61;98795.78;4900512;29;20235;-64
2023/08/07 02:24:10;;;;;;;4.33;1.33;;;;;;;11.58;97.27;98798.38;4885779;29;20358;-63
2023/08/07 02:26:38;;;;;;;3.77;1.50;;;;;;;11.70;97.59;98800.72;4913425;29;20590;-64
2023/08/07 02:29:08;;;;;;;6.77;1.57;;;;;;;11.70;95.87;98798.94;4899005;28;20236;-64
2023/08/07 02:31:35;;;;;;;2.97;1.67;;;;;;;11.66;95.58;98793.19;4899949;28;20253;-63
2023/08/07 02:34:02;;;;;;;9.60;1.77;;;;;;;11.70;96.45;98787.63;4895586;29;20231;-64
2023/08/07 02:36:29;;;;;;;4.97;1.60;;;;;;;11.62;96.24;98791.03;4900346;29;20236;-64
2023/08/07 02:38:56;;;;;;;2.73;1.40;;;;;;;11.61;95.96;98795.47;4886331;29;20243;-64
2023/08/07 02:41:24;;;;;;;5.57;1.60;;;;;;;11.63;96.42;98790.91;4891417;29;20678;-64
2023/08/07 02:43:51;;;;;;;3.90;1.40;;;;;;;11.76;96.44;98790.47;4890977;29;20285;-64
2023/08/07 02:46:24;;;;;;;4.10;1.53;;;;;;;11.80;94.62;98791.81;4899490;29;20683;-64
2023/08/07 02:48:51;;;;;;;5.50;1.90;;;;;;;11.72;95.42;98789.16;4903513;29;20601;-64
2023/08/07 02:51:22;;;;;;;3.47;1.53;;;;;;;11.93;96.04;98785.34;4898998;29;20246;-64
2023/08/07 02:53:49;;;;;;;4.10;1.40;;;;;;;11.77;94.56;98791.28;4895011;29;20731;-64
2023/08/07 02:56:24;;;;;;;5.33;2.00;;;;;;;11.70;96.02;98788.47;4891355;29;20249;-63
2023/08/07 02:58:51;;;;;;;5.97;1.40;;;;;;;11.59;96.65;98768.66;4902499;28;20278;-63
2023/08/07 03:04:07;;;;;;;2.70;1.57;;;;;;;11.82;94.53;98779.41;5484636;23;20572;-60
2023/08/07 03:06:36;;;;;;;3.10;1.40;;;;;;;11.90;94.52;98780.41;4935111;28;20632;-58
2023/08/07 03:09:03;;;;;;;4.87;2.00;;;;;;;11.80;95.79;98776.13;4912270;28;20319;-58
2023/08/07 03:11:36;;;;;;;2.93;1.70;;;;;;;11.84;95.48;98786.28;4929412;28;20224;-59
2023/08/07 03:14:03;;;;;;;2.80;1.50;;;;;;;12.01;94.25;98779.34;4926946;28;20221;-59
2023/08/07 03:16:29;;;;;;;3.30;1.23;;;;;;;11.95;93.67;98776.34;4922459;29;20614;-59
2023/08/07 03:18:56;;;;;;;3.03;1.63;;;;;;;11.88;95.44;98783.19;4922682;29;20255;-59
2023/08/07 03:21:24;;;;;;;5.90;1.30;;;;;;;12.08;93.41;98789.06;4938522;28;20232;-58
2023/08/07 03:23:54;;;;;;;2.83;1.70;;;;;;;12.12;93.71;98781.69;4893956;28;20241;-59
2023/08/07 03:26:29;;;;;;;3.17;1.37;;;;;;;12.23;92.83;98781.41;4901176;28;20247;-59
2023/08/07 03:28:56;;;;;;;2.87;1.30;;;;;;;12.26;91.52;98788.13;4860772;28;20349;-59
2023/08/07 03:31:23;;;;;;;2.83;1.43;;;;;;;12.10;93.21;98778.41;5134462;23;20218;-53
2023/08/07 03:33:54;;;;;;;4.67;1.60;;;;;;;12.21;91.59;98785.16;4911359;29;20641;-55
2023/08/07 03:36:24;;;;;;;5.67;1.60;;;;;;;12.23;91.36;98789.25;4912109;28;20314;-53
2023/08/07 03:38:52;;;;;;;3.67;1.53;;;;;;;12.25;93.12;98791.72;4922477;29;20233;-54
2023/08/07 03:41:23;;;;;;;5.77;1.60;;;;;;;12.16;91.36;98793.50;4884503;29;20232;-52
2023/08/07 03:43:56;;;;;;;6.13;1.57;;;;;;;12.21;90.93;98782.53;4900752;29;20238;-54
2023/08/07 03:46:24;;;;;;;4.43;1.40;;;;;;;12.18;91.21;98772.41;4893722;29;20234;-54
2023/08/07 03:48:55;;;;;;;5.57;1.90;;;;;;;12.22;90.16;98776.31;4908933;29;20325;-53
2023/08/07 03:51:25;;;;;;;3.90;1.60;;;;;;;12.35;90.65;98794.22;4891362;29;20238;-51
2023/08/07 03:53:54;;;;;;;6.93;1.80;;;;;;;12.47;88.14;98792.97;4899176;29;20790;-51
2023/08/07 03:56:26;;;;;;;2.73;1.33;;;;;;;12.43;87.81;98790.78;4899499;29;20231;-53
2023/08/07 03:59:05;;;;;;;2.03;1.23;;;;;;;12.49;88.18;98785.75;4882674;29;20257;-53
2023/08/07 04:01:32;;;;;;;3.43;1.30;;;;;;;12.45;88.70;98791.47;4895429;29;20263;-53
2023/08/07 04:03:59;;;;;;;4.17;1.50;;;;;;;12.59;86.35;98800.53;4902577;29;20238;-51
2023/08/07 04:06:28;;;;;;;3.03;1.43;;;;;;;12.49;87.54;98795.41;4908492;29;20232;-52
2023/08/07 04:08:55;;;;;;;2.63;1.60;;;;;;;12.52;86.79;98792.47;4907736;29;20266;-51
2023/08/07 04:11:22;;;;;;;3.20;1.40;;;;;;;12.48;88.16;98799.00;4902623;29;20242;-52
2023/08/07 04:13:49;;;;;;;3.13;1.80;;;;;;;12.44;86.94;98798.50;4905820;29;20685;-53
2023/08/07 04:16:22;;;;;;;4.27;1.60;;;;;;;12.46;89.80;98790.47;4904704;29;20231;-51
2023/08/07 04:18:49;;;;;;;2.07;1.30;;;;;;;12.44;88.18;98803.75;4918947;29;20382;-53
2023/08/07 04:21:41;;;;;;;5.70;1.80;;;;;;;12.46;87.22;98796.56;4903770;29;20306;-52
2023/08/07 04:24:10;;;;;;;3.23;1.40;;;;;;;12.49;88.47;98793.63;4919167;29;20707;-51
2023/08/07 04:26:37;;;;;;;3.93;1.43;;;;;;;12.52;88.32;98801.16;4907261;29;20282;-52
2023/08/07 04:29:04;;;;;;;3.93;1.50;;;;;;;12.48;87.59;98801.63;4901089;29;20747;-53
2023/08/07 04:31:31;;;;;;;3.00;1.33;;;;;;;12.66;86.87;98794.47;4904471;29;20246;-52
2023/08/07 04:33:58;;;;;;;3.97;1.60;;;;;;;12.66;87.25;98801.53;4904382;29;20256;-54
2023/08/07 04:36:24;;;;;;;3.37;1.43;;;;;;;12.67;87.05;98801.34;4907824;29;20785;-53
2023/08/07 04:38:53;;;;;;;3.70;1.40;;;;;;;12.67;86.30;98813.63;4907030;29;20241;-52
2023/08/07 04:41:23;;;;;;;3.03;1.77;;;;;;;12.69;87.16;98799.38;4904034;29;20297;-53
2023/08/07 04:43:49;;;;;;;2.30;1.50;;;;;;;12.65;87.34;98810.34;4905577;29;20245;-51
2023/08/07 04:46:22;;;;;;;3.43;1.70;;;;;;;12.71;86.82;98807.09;4903847;29;20757;-52
2023/08/07 04:48:49;;;;;;;3.20;1.40;;;;;;;12.60;87.67;98810.00;4905195;29;20243;-53
2023/08/07 04:51:19;;;;;;;4.70;2.00;;;;;;;12.62;88.13;98813.28;4904282;29;20242;-51
2023/08/07 04:53:46;;;;;;;3.63;1.70;;;;;;;12.63;87.48;98804.47;4906031;29;20653;-51
2023/08/07 04:56:14;;;;;;;6.17;1.80;;;;;;;12.70;87.41;98816.75;4902153;29;20234;-52
2023/08/07 04:58:40;;;;;;;4.00;1.43;;;;;;;12.76;87.25;98802.19;4904950;29;20244;-51
2023/08/07 05:01:08;;;;;;;4.77;1.67;;;;;;;12.69;87.62;98809.06;4905349;29;20787;-52
2023/08/07 05:03:35;;;;;;;3.30;1.43;;;;;;;12.65;88.03;98811.16;4905547;29;20246;-53
2023/08/07 05:06:02;;;;;;;3.97;1.77;;;;;;;12.74;87.96;98816.44;4902928;29;20257;-52
2023/08/07 05:08:29;;;;;;;3.57;1.80;;;;;;;12.75;87.01;98820.69;4904893;29;20242;-52
2023/08/07 05:10:56;;;;;;;4.07;1.90;;;;;;;12.79;87.25;98822.81;4903566;29;20229;-53
2023/08/07 05:13:24;;;;;;;3.70;1.43;;;;;;;12.78;87.59;98815.94;4905634;29;20901;-51
2023/08/07 05:15:51;;;;;;;4.23;1.90;;;;;;;12.95;88.34;98815.97;4904493;29;20638;-52
2023/08/07 05:18:17;;;;;;;2.93;1.70;;;;;;;12.83;87.60;98829.38;4901633;29;20235;-52
2023/08/07 05:20:44;;;;;;;2.10;1.40;;;;;;;12.90;87.76;98831.34;4904128;29;20227;-52
2023/08/07 05:23:11;;;;;;;6.30;2.20;;;;;;;12.85;88.33;98816.13;4902318;29;20270;-51
2023/08/07 05:25:38;;;;;;;3.63;2.00;;;;;;;12.97;88.92;98820.06;4905314;29;21225;-54
2023/08/07 05:28:05;;;;;;;4.67;1.60;;;;;;;12.95;87.40;98815.97;4904915;29;20238;-53
2023/08/07 05:30:33;;;;;;;2.87;1.60;;;;;;;12.97;87.57;98822.69;4906422;29;20265;-52
2023/08/07 05:32:59;;;;;;;2.87;1.50;;;;;;;12.91;88.44;98822.50;4902619;29;20328;-52
2023/08/07 05:35:26;;;;;;;4.70;1.87;;;;;;;12.92;88.27;98832.84;4906107;29;20786;-54
2023/08/07 05:37:52;;;;;;;4.43;1.70;;;;;;;12.99;88.60;98840.88;4904989;29;20241;-51
2023/08/07 05:40:19;;;;;;;2.97;1.90;;;;;;;12.87;88.55;98837.75;4902908;29;20724;-52
2023/08/07 05:42:47;;;;;;;6.27;1.80;;;;;;;12.88;88.80;98838.53;4906152;29;20247;-51
2023/08/07 05:45:14;;;;;;;1.90;1.50;;;;;;;12.93;88.62;98838.88;4901390;29;20642;-51
2023/08/07 05:47:41;;;;;;;2.53;1.87;;;;;;;12.99;88.15;98851.34;4903845;29;20239;-52
2023/08/07 05:50:09;;;;;;;4.43;1.90;;;;;;;13.02;89.59;98850.22;4902339;29;20282;-52
2023/08/07 05:52:35;;;;;;;5.77;1.80;;;;;;;12.99;89.57;98849.56;4905528;29;20863;-53
2023/08/07 05:55:02;;;;;;;4.30;1.60;;;;;;;13.06;88.72;98860.22;4904768;29;20231;-52
2023/08/07 05:57:29;;;;;;;6.50;1.60;;;;;;;13.06;89.60;98857.59;4907092;29;20234;-52
2023/08/07 05:59:56;;;;;;;4.40;1.80;;;;;;;13.13;88.74;98858.59;4904735;29;20240;-54
2023/08/07 06:02:22;;;;;;;4.37;1.80;;;;;;;13.16;89.70;98860.06;4903735;29;20239;-51
2023/08/07 06:04:50;;;;;;;4.03;1.57;;;;;;;13.21;88.74;98865.66;4905332;29;20241;-52
2023/08/07 06:07:17;;;;;;;4.23;2.07;;;;;;;13.27;87.57;98867.59;4902255;29;20239;-52
2023/08/07 06:09:43;;;;;;;4.90;2.53;;;;;;;13.23;87.73;98868.09;4905371;29;20737;-53
2023/08/07 06:12:10;;;;;;;3.27;2.10;;;;;;;13.28;87.85;98871.06;4904337;29;20235;-52
2023/08/07 06:14:37;;;;;;;3.50;1.77;;;;;;;13.38;88.17;98865.66;4906823;29;20235;-51
2023/08/07 06:17:05;;;;;;;4.43;1.50;;;;;;;13.42;87.36;98865.19;4903392;29;20643;-51
2023/08/07 06:19:32;;;;;;;4.97;2.03;;;;;;;13.42;87.74;98873.06;4905338;29;20856;-51
2023/08/07 06:22:00;;;;;;;2.57;1.50;;;;;;;13.54;86.00;98867.50;4904808;29;20230;-52
2023/08/07 06:24:26;;;;;;;4.00;2.13;;;;;;;13.50;84.90;98866.19;4908993;29;20227;-52
2023/08/07 06:26:53;;;;;;;3.43;1.70;;;;;;;13.35;86.32;98864.19;4909218;29;20230;-52
2023/08/07 06:29:19;;;;;;;5.30;1.80;;;;;;;13.53;86.49;98871.09;4904981;29;20231;-51
2023/08/07 06:31:46;;;;;;;3.73;1.40;;;;;;;13.49;85.51;98867.97;4906206;29;20253;-52
2023/08/07 06:34:13;;;;;;;3.50;1.40;;;;;;;13.64;86.83;98876.03;4907108;29;20230;-52
2023/08/07 06:36:39;;;;;;;4.20;1.47;;;;;;;13.68;85.18;98876.50;4908891;29;20238;-53
2023/08/07 06:39:07;;;;;;;2.43;1.40;;;;;;;13.65;86.01;98876.84;4906892;28;20242;-51
2023/08/07 06:41:34;;;;;;;6.67;1.97;;;;;;;13.63;85.32;98882.25;4908722;29;20270;-51
2023/08/07 06:44:00;;;;;;;3.30;1.60;;;;;;;13.65;85.13;98882.91;4906048;29;20635;-51
2023/08/07 06:46:27;;;;;;;3.23;1.50;;;;;;;13.84;86.57;98883.53;4907137;29;20251;-54
2023/08/07 06:48:54;;;;;;;5.83;2.17;;;;;;;13.94;85.18;98886.81;4908760;29;20639;-52
2023/08/07 06:51:22;;;;;;;3.13;1.50;;;;;;;13.83;84.13;98881.88;4904923;29;20262;-54
2023/08/07 06:53:49;;;;;;;2.80;1.77;;;;;;;13.96;83.90;98876.97;4907661;29;20248;-53
2023/08/07 06:56:21;;;;;;;7.13;1.47;;;;;;;13.95;84.01;98877.94;4905784;29;20250;-52
2023/08/07 06:58:47;;;;;;;5.67;1.60;;;;;;;14.08;83.97;98898.44;4908684;29;20232;-52
2023/08/07 07:01:14;;;;;;;4.37;1.40;;;;;;;13.83;83.94;98895.84;4909438;29;20271;-52
2023/08/07 07:03:40;;;;;;;5.00;1.70;;;;;;;14.09;84.27;98897.47;4907662;29;20244;-52
2023/08/07 07:06:07;;;;;;;3.47;1.60;;;;;;;14.08;84.36;98901.06;4908180;29;20241;-52
2023/08/07 07:08:34;;;;;;;3.27;1.57;;;;;;;14.28;83.08;98898.88;4909942;29;20364;-51
2023/08/07 07:11:00;;;;;;;4.17;1.70;;;;;;;14.34;81.79;98905.25;4906767;29;20232;-53
2023/08/07 07:13:28;;;;;;;4.70;1.90;;;;;;;14.36;81.63;98905.91;4909700;29;20234;-54
2023/08/07 07:15:55;;;;;;;2.90;1.53;;;;;;;14.41;82.63;98918.56;4912639;29;20228;-54
2023/08/07 07:18:22;;;;;;;3.73;1.60;;;;;;;14.35;81.87;98900.84;4909669;29;20247;-53
2023/08/07 07:20:48;;;;;;;2.97;1.87;;;;;;;14.35;80.34;98919.22;4905244;29;20235;-54
2023/08/07 07:23:15;;;;;;;7.13;1.67;;;;;;;14.52;79.11;98906.84;4905964;29;20663;-53
2023/08/07 07:25:42;;;;;;;4.13;2.03;;;;;;;14.73;78.44;98922.09;4910599;29;20961;-54
2023/08/07 07:28:08;;;;;;;3.90;1.70;;;;;;;14.55;80.79;98915.22;4904028;28;20229;-54
2023/08/07 07:30:36;;;;;;;2.50;1.60;;;;;;;14.67;79.38;98920.13;4912259;29;20244;-51
2023/08/07 07:33:03;;;;;;;6.70;1.73;;;;;;;14.44;79.57;98936.59;4906015;28;20715;-51
2023/08/07 07:35:29;;;;;;;3.67;1.73;;;;;;;14.69;77.31;98934.75;4913188;29;20238;-51
2023/08/07 07:37:56;;;;;;;2.50;1.50;;;;;;;14.31;79.00;98927.44;4909845;29;20244;-53
2023/08/07 07:40:22;;;;;;;4.00;1.70;;;;;;;14.80;77.58;98922.22;4908731;29;20246;-53
2023/08/07 07:42:49;;;;;;;2.57;1.37;;;;;;;14.85;78.29;98939.09;4911163;29;20255;-54
2023/08/07 07:45:15;;;;;;;4.20;1.50;;;;;;;14.55;79.10;98936.25;4907750;29;21938;-54
2023/08/07 07:47:43;;;;;;;4.73;1.83;;;;;;;14.54;78.35;98952.16;4909070;29;20314;-54
2023/08/07 07:50:12;;;;;;;3.93;1.40;;;;;;;14.41;76.81;98942.19;4907536;29;20241;-52
2023/08/07 07:52:39;;;;;;;6.63;1.30;;;;;;;14.61;78.22;98935.56;4911155;29;20765;-53
2023/08/07 07:55:08;;;;;;;3.50;1.67;;;;;;;14.48;75.72;98932.66;4908356;29;20231;-54
2023/08/07 07:57:35;;;;;;;3.83;1.20;;;;;;;14.58;73.33;98928.03;4911141;29;20244;-52
2023/08/07 08:00:03;;;;;;;2.53;1.60;;;;;;;14.82;73.32;98930.75;4907517;29;20239;-54
2023/08/07 08:02:38;;;;;;;4.60;1.47;;;;;;;14.92;76.22;98939.25;4912150;29;20242;-52
2023/08/07 08:05:06;;;;;;;3.13;1.80;;;;;;;15.19;76.36;98945.03;4908422;29;20311;-52
2023/08/07 08:07:34;;;;;;;5.20;1.57;;;;;;;14.89;77.38;98942.22;4912354;29;20268;-53
2023/08/07 08:10:01;;;;;;;2.87;1.40;;;;;;;15.19;75.42;98950.31;4906393;29;20309;-54
2023/08/07 08:12:27;;;;;;;4.10;1.80;;;;;;;15.14;74.42;98947.38;4910280;29;20232;-52
2023/08/07 08:14:54;;;;;;;2.20;1.20;;;;;;;15.12;71.91;98955.41;4912986;29;20229;-54
2023/08/07 08:17:21;;;;;;;5.83;1.27;;;;;;;15.01;70.03;98963.69;4905992;29;20233;-54
2023/08/07 08:19:47;;;;;;;3.47;1.20;;;;;;;15.01;69.23;98958.41;4906688;29;20236;-55
2023/08/07 08:22:19;;;;;;;3.50;1.53;;;;;;;15.32;65.85;98968.97;4903538;29;20314;-53
2023/08/07 08:24:47;;;;;;;2.67;1.20;;;;;;;15.29;67.02;98955.34;4907358;29;20252;-52
2023/08/07 08:27:14;;;;;;;3.50;1.40;;;;;;;15.47;66.17;98968.19;4903729;29;20235;-53
2023/08/07 08:29:40;;;;;;;5.03;1.30;;;;;;;15.29;62.97;98968.47;4907178;29;20230;-52
2023/08/07 08:32:09;;;;;;;1.57;1.20;;;;;;;15.37;63.22;98971.06;4903496;29;20285;-53
2023/08/07 08:34:35;;;;;;;3.13;1.27;;;;;;;15.58;64.56;98974.88;4906295;29;20725;-54
2023/08/07 08:37:05;;;;;;;2.80;1.33;;;;;;;15.87;64.59;98965.50;4903881;29;20317;-54
2023/08/07 08:39:33;;;;;;;5.53;1.50;;;;;;;16.19;63.17;98964.41;4907951;29;20247;-53
2023/08/07 08:42:00;;;;;;;6.00;1.53;;;;;;;16.27;60.48;98955.59;4902979;29;20260;-54
2023/08/07 08:44:30;;;;;;;3.93;1.10;;;;;;;16.51;60.25;98953.72;4905060;29;20232;-54
2023/08/07 08:47:00;;;;;;;2.90;1.20;;;;;;;16.37;60.10;98960.63;4903717;29;20245;-52
2023/08/07 08:49:31;;;;;;;2.43;1.10;;;;;;;15.99;61.75;98968.53;4905278;29;20250;-52
2023/08/07 08:51:58;;;;;;;3.20;1.27;;;;;;;16.41;61.65;98964.53;4903157;29;20236;-53
2023/08/07 08:54:25;;;;;;;2.60;1.23;;;;;;;16.31;60.02;98967.41;4904204;29;20408;-54
2023/08/07 08:56:54;;;;;;;4.67;1.20;;;;;;;16.24;61.24;98971.75;4904186;29;20245;-51
2023/08/07 08:59:22;;;;;;;3.43;1.40;;;;;;;15.93;62.82;98962.97;4902407;29;20416;-53
2023/08/07 09:01:51;;;;;;;4.10;1.50;;;;;;;15.84;62.63;98964.00;4903145;29;20234;-52
2023/08/07 09:04:19;;;;;;;3.63;1.40;;;;;;;16.36;62.45;98964.25;4888418;29;20252;-52
2023/08/07 09:06:46;;;;;;;5.73;1.43;;;;;;;16.13;62.99;98953.75;4890427;29;20869;-54
2023/08/07 09:09:15;;;;;;;1.90;1.23;;;;;;;16.04;63.34;98953.81;4901883;29;20227;-54
2023/08/07 09:11:43;;;;;;;2.70;1.27;;;;;;;16.51;59.03;98964.25;4905078;29;20869;-53
2023/08/07 09:14:16;;;;;;;4.73;1.20;;;;;;;16.71;59.38;98985.59;4903750;29;20248;-52
2023/08/07 09:16:42;;;;;;;3.10;1.37;;;;;;;16.32;60.00;98963.78;4904726;29;20301;-54
2023/08/07 09:19:09;;;;;;;2.37;1.20;;;;;;;16.59;59.25;98965.97;4902484;29;20226;-54
2023/08/07 09:21:36;;;;;;;4.17;1.20;;;;;;;16.86;57.77;98969.78;4903545;29;20250;-53
2023/08/07 09:24:02;;;;;;;2.37;1.27;;;;;;;16.50;59.45;98962.63;4900704;29;20283;-51
2023/08/07 09:26:29;;;;;;;3.90;1.07;;;;;;;16.91;57.60;98956.88;4904797;29;20710;-53
2023/08/07 09:28:56;;;;;;;3.83;1.63;;;;;;;16.87;59.54;98952.97;4905512;29;20721;-54
2023/08/07 09:31:26;;;;;;;2.23;1.27;;;;;;;17.15;58.47;98962.84;4900767;29;20251;-54
2023/08/07 09:33:53;;;;;;;3.63;1.30;;;;;;;16.85;58.69;98973.44;4904239;29;20246;-51
2023/08/07 09:36:24;;;;;;;2.20;1.40;;;;;;;16.27;59.90;98968.75;4903288;29;20293;-53
2023/08/07 09:38:51;;;;;;;2.27;1.33;;;;;;;16.13;61.34;98965.13;4904305;29;20237;-54
2023/08/07 09:41:23;;;;;;;3.70;1.60;;;;;;;16.64;60.47;98974.16;4904031;29;20257;-53
2023/08/07 09:43:49;;;;;;;1.87;1.20;;;;;;;17.14;60.73;98977.03;4904216;29;20229;-54
2023/08/07 09:46:45;;;;;;;3.43;1.30;;;;;;;16.84;58.76;98969.16;4903943;29;20316;-52
2023/08/07 09:49:12;;;;;;;2.43;1.10;;;;;;;16.56;59.78;98961.88;4903002;29;20277;-53
2023/08/07 09:51:43;;;;;;;4.13;1.43;;;;;;;16.85;60.04;98957.63;4904221;29;20232;-54
2023/08/07 09:54:09;;;;;;;4.43;1.53;;;;;;;16.70;60.03;98956.81;4901750;29;20230;-52
2023/08/07 09:56:36;;;;;;;5.60;1.50;;;;;;;16.79;60.74;98961.78;4906535;29;20242;-51
2023/08/07 09:59:03;;;;;;;3.33;1.83;;;;;;;17.01;60.52;98964.53;4902454;29;20235;-54
2023/08/07 10:01:29;;;;;;;2.30;1.30;;;;;;;17.26;59.56;98957.09;4904408;29;21204;-53
2023/08/07 10:03:58;;;;;;;5.87;1.60;;;;;;;17.14;58.27;98963.06;4903971;29;20239;-51
2023/08/07 10:06:25;;;;;;;2.73;1.50;;;;;;;17.54;58.44;98964.28;4903561;29;20649;-52
2023/08/07 10:08:53;;;;;;;6.03;1.27;;;;;;;17.63;59.21;98953.63;4903895;29;20322;-59
2023/08/07 10:11:23;;;;;;;3.47;1.20;;;;;;;17.76;58.72;98955.53;4903465;29;20252;-53
2023/08/07 10:13:51;;;;;;;2.50;1.20;;;;;;;17.94;55.86;98963.03;4905182;29;21247;-54
2023/08/07 10:16:23;;;;;;;1.67;1.00;;;;;;;18.15;55.34;98964.84;4901129;29;20238;-53
2023/08/07 10:18:49;;;;;;;3.40;1.23;;;;;;;17.79;55.25;98971.84;4904787;29;20326;-52
2023/08/07 10:21:44;;;;;;;3.47;1.20;;;;;;;17.59;56.40;98960.28;4902784;29;20311;-53
2023/08/07 10:24:12;;;;;;;4.03;1.10;;;;;;;17.98;55.76;98959.00;4900266;29;20694;-54
2023/08/07 10:26:43;;;;;;;3.40;1.13;;;;;;;17.74;56.32;98963.66;4903282;29;20240;-52
2023/08/07 10:29:14;;;;;;;2.07;1.20;;;;;;;17.84;54.54;98966.81;4901922;29;20292;-53
2023/08/07 10:31:43;;;;;;;3.67;1.27;;;;;;;17.88;54.39;98953.22;4903295;29;20258;-53
2023/08/07 10:34:10;;;;;;;2.03;1.03;;;;;;;17.67;56.14;98954.88;4901408;29;20323;-52
2023/08/07 10:36:38;;;;;;;1.90;1.27;;;;;;;17.64;57.05;98963.16;4904137;28;20239;-53
2023/08/07 10:39:11;;;;;;;2.13;1.20;;;;;;;17.66;56.35;98954.03;4900201;29;20482;-52
2023/08/07 10:41:42;;;;;;;1.97;1.20;;;;;;;17.35;57.18;98954.34;4904528;29;20246;-52
2023/08/07 10:44:19;;;;;;;3.70;1.60;;;;;;;17.17;58.20;98970.59;4901932;29;20294;-53
2023/08/07 10:46:50;;;;;;;1.77;1.27;;;;;;;17.64;56.63;98969.25;4902929;29;20226;-52
2023/08/07 10:49:31;;;;;;;2.00;1.23;;;;;;;18.21;54.54;98974.66;4901594;29;20708;-53
2023/08/07 10:51:58;;;;;;;3.33;1.77;;;;;;;18.54;52.44;98975.88;4903389;28;20318;-52
2023/08/07 10:54:26;;;;;;;3.40;1.13;;;;;;;18.33;51.89;98967.00;4900757;29;20252;-53
2023/08/07 10:56:55;;;;;;;2.43;1.10;;;;;;;18.67;53.20;98970.66;4904236;29;20565;-55
2023/08/07 10:59:21;;;;;;;2.20;1.00;;;;;;;18.38;54.27;98967.25;4903196;29;20239;-52
2023/08/07 11:01:52;;;;;;;4.47;1.20;;;;;;;17.92;55.31;98963.22;4903922;29;20822;-54
2023/08/07 11:04:19;;;;;;;2.73;1.37;;;;;;;17.56;55.85;98964.91;4900984;29;20239;-54
2023/08/07 11:06:48;;;;;;;4.83;1.27;;;;;;;17.44;56.49;98968.25;4908032;29;20239;-52
2023/08/07 11:09:15;;;;;;;2.53;1.13;;;;;;;17.88;56.09;98972.53;4905068;29;20230;-54
2023/08/07 11:11:46;;;;;;;4.80;1.13;;;;;;;18.04;55.03;98968.00;4907389;29;20255;-52
2023/08/07 11:14:14;;;;;;;2.77;1.23;;;;;;;18.24;54.97;98982.19;4904401;29;20713;-52
2023/08/07 11:16:41;;;;;;;2.83;1.13;;;;;;;18.49;54.69;98973.81;4906457;29;20538;-52
2023/08/07 11:19:09;;;;;;;3.60;1.20;;;;;;;18.38;52.66;98977.00;4904232;29;20298;-52
2023/08/07 11:21:36;;;;;;;2.60;1.27;;;;;;;19.04;50.75;98970.47;4907856;29;20727;-52
2023/08/07 11:24:03;;;;;;;2.83;1.00;;;;;;;18.50;53.24;98961.41;4904201;29;20911;-52
2023/08/07 11:26:31;;;;;;;2.63;1.00;;;;;;;18.06;53.93;98966.78;4904788;29;20247;-53
2023/08/07 11:28:59;;;;;;;4.70;1.10;;;;;;;18.40;54.58;98981.06;4905256;29;20239;-55
2023/08/07 11:31:27;;;;;;;5.70;1.10;;;;;;;17.97;54.89;98974.03;4906622;29;20236;-54
2023/08/07 11:33:57;;;;;;;2.47;1.10;;;;;;;18.04;53.85;98982.00;4908837;29;20232;-56
2023/08/07 11:36:24;;;;;;;1.50;1.20;;;;;;;18.35;54.04;98983.47;4909330;28;20236;-54
2023/08/07 11:38:51;;;;;;;1.93;1.13;;;;;;;18.52;52.90;98986.66;4908997;29;20235;-53
2023/08/07 11:41:22;;;;;;;2.13;1.43;;;;;;;17.99;51.87;98985.25;4906314;29;20247;-54